Nearby METAR Reports

 

KLWM - Lawrence,MA, USA
Distance from station: NE 12mi, 19km
Updated: Mon, 27-Mar-2017 11:54am EDT
Rain, Mist, Overcast
Rain, Mist, Overcast
 Wind from N
Wind: N 6 mph , 9 km/h
Temperature: 37°F , 3°C
Wind Chill: 32°F , 0°C
Dew Point: 37°F , 3°C
Humidity: 100%
Barometer: 30.14 inHg , 1020.7 hPa
Summary: Rain, Mist
Clouds: Overcast
Visibility: 4 miles , 6 km
Cloud details: Overcast 500 ft
2017/03/27 15:54 KLWM 271554Z 01005KT 4SM RA BR OVC005 03/03 A3014 RMK AO2 SLP208 P0021 T00280028
KBED - Bedford,MA, USA
Distance from station: SSE 12mi, 19km
Updated: Mon, 27-Mar-2017 12:23pm EDT
Light rain, Mist, Overcast
Light rain, Mist, Overcast
 Wind from NNE
Wind: NNE 5 mph , 7 km/h
Temperature: 39°F , 4°C
Wind Chill: 35°F , 2°C
Dew Point: 37°F , 3°C
Humidity: 93%
Barometer: 30.09 inHg , 1019 hPa
Summary: Light rain, Mist
Clouds: Overcast
Visibility: 5 miles , 8 km
Cloud details: Partly Cloudy 500 ft
Overcast 1200 ft
2017/03/27 16:23 KBED 271623Z 02004KT 5SM -RA BR SCT005 OVC012 04/03 A3009 RMK AO2 P0009 T00440028

Metar display script from Saratoga-Weather.org